Time;durP1;ratioP1;P1;durP2;ratioP2;P2;SDS_P1;SDS_P2;PMS_P1;PMS_P2;Temp;Humidity;BMP_temperature;BMP_pressure;BME280_temperature;BME280_humidity;BME280_pressure;Samples;Min_cycle;Max_cycle;Signal;HPM_P1;HPM_P2
2021/08/30 00:00:14;;;;;;;1.90;1.60;;;;;;;16.69;51.75;101300.88;4960424;28;20508;-74
2021/08/30 00:02:40;;;;;;;3.17;1.55;;;;;;;16.64;51.82;101295.41;4998606;28;20041;-73
2021/08/30 00:05:07;;;;;;;1.48;1.38;;;;;;;16.63;52.17;101307.53;4964606;28;20026;-73
2021/08/30 00:07:36;;;;;;;1.40;1.30;;;;;;;16.57;52.25;101302.06;4995188;28;20595;-75
2021/08/30 00:10:04;;;;;;;2.13;1.98;;;;;;;16.49;52.57;101299.91;5000383;28;20053;-73
2021/08/30 00:12:40;;;;;;;1.48;1.38;;;;;;;16.48;52.53;101301.00;4993194;28;20125;-73
2021/08/30 00:15:08;;;;;;;1.58;1.27;;;;;;;16.39;52.64;101291.66;4969566;28;20193;-73
2021/08/30 00:17:33;;;;;;;1.70;1.60;;;;;;;16.39;52.79;101291.66;4976680;28;20034;-74
2021/08/30 00:19:59;;;;;;;3.10;1.05;;;;;;;16.39;52.78;101286.16;4976015;28;20082;-73
2021/08/30 00:22:25;;;;;;;2.42;1.58;;;;;;;16.43;52.81;101292.75;4975117;28;20102;-72
2021/08/30 00:24:57;;;;;;;1.48;1.38;;;;;;;16.45;53.06;101301.56;4993827;28;20038;-74
2021/08/30 00:27:23;;;;;;;1.73;1.48;;;;;;;16.42;52.67;101302.13;4955599;28;20163;-72
2021/08/30 00:29:49;;;;;;;1.80;1.70;;;;;;;16.52;52.83;101306.78;4941942;28;20060;-73
2021/08/30 00:32:19;;;;;;;1.50;1.40;;;;;;;16.56;52.87;101313.41;4976074;28;20548;-73
2021/08/30 00:34:48;;;;;;;1.13;1.02;;;;;;;16.55;52.96;101304.28;4962703;28;20045;-74
2021/08/30 00:39:49;;;;;;;4.60;1.80;;;;;;;16.63;53.21;101307.53;4975785;28;20042;-74
2021/08/30 00:42:15;;;;;;;1.20;1.10;;;;;;;16.66;53.27;101306.97;4980069;28;20046;-74
2021/08/30 00:45:10;;;;;;;1.65;1.55;;;;;;;16.65;53.45;101305.34;4956668;28;20405;-74
2021/08/30 01:36:03;;;;;;;;;;;;;;;;;;;;;
2021/08/30 01:39:26;;;;;;;1.17;1.05;;;;;;;17.23;53.97;101316.53;4995607;28;20058;-75
2021/08/30 01:42:38;;;;;;;2.67;1.40;;;;;;;17.14;54.05;101296.16;4968647;28;20514;-76
2021/08/30 01:45:06;;;;;;;1.27;1.17;;;;;;;17.27;53.88;101325.91;4991171;28;20507;-74
2021/08/30 01:47:33;;;;;;;1.27;1.17;;;;;;;17.22;54.01;101309.34;4991438;28;20117;-75
2021/08/30 01:50:03;;;;;;;3.47;1.90;;;;;;;17.28;54.08;101316.50;4972974;28;20035;-74
2021/08/30 01:52:31;;;;;;;3.60;1.60;;;;;;;17.32;53.94;101318.66;4966550;28;20121;-74
2021/08/30 01:55:09;;;;;;;1.63;1.52;;;;;;;17.34;54.29;101322.00;4961515;28;20038;-73
2021/08/30 02:00:52;;;;;;;1.50;1.40;;;;;;;17.40;53.99;101326.34;4974765;28;20038;-75
2021/08/30 02:03:22;;;;;;;1.98;1.35;;;;;;;17.36;54.22;101314.22;4970533;28;20045;-76
2021/08/30 02:05:57;;;;;;;3.65;1.90;;;;;;;17.35;53.96;101312.59;4973182;28;20031;-75
2021/08/30 02:08:25;;;;;;;0.93;0.93;;;;;;;17.39;54.09;101321.91;4971136;28;20037;-73
2021/08/30 02:10:55;;;;;;;1.30;1.20;;;;;;;17.39;53.87;101311.72;4971661;28;20042;-73
2021/08/30 02:13:34;;;;;;;2.72;1.60;;;;;;;17.39;53.72;101308.09;4978962;28;20483;-75
2021/08/30 02:16:12;;;;;;;1.60;1.50;;;;;;;17.41;53.77;101309.47;4982789;28;20042;-74
2021/08/30 02:18:55;;;;;;;1.77;1.67;;;;;;;17.43;54.00;101315.56;4967097;28;20042;-74
2021/08/30 02:21:31;;;;;;;1.27;1.27;;;;;;;17.41;54.22;101314.19;4971918;28;20033;-73
2021/08/30 02:24:03;;;;;;;1.23;1.23;;;;;;;17.40;53.96;101315.28;4981112;28;20382;-73
2021/08/30 02:27:17;;;;;;;1.52;1.42;;;;;;;17.52;53.80;101324.03;4978572;28;20037;-75
2021/08/30 02:45:51;;;;;;;1.27;0.85;;;;;;;17.40;54.25;101310.56;5727038;23;20046;-75
2021/08/30 02:48:17;;;;;;;1.58;1.48;;;;;;;17.39;54.25;101313.63;4992495;28;20034;-75
2021/08/30 02:50:44;;;;;;;2.35;1.35;;;;;;;17.32;54.62;101307.59;5008531;28;20026;-75
2021/08/30 02:53:10;;;;;;;1.70;1.60;;;;;;;17.37;54.71;101307.56;4996638;28;20033;-75
2021/08/30 02:55:43;;;;;;;1.48;1.38;;;;;;;17.33;54.82;101309.28;4993277;28;20042;-74
2021/08/30 02:58:09;;;;;;;0.82;0.82;;;;;;;17.30;54.60;101294.09;5015568;28;20034;-74
2021/08/30 03:00:35;;;;;;;1.13;0.98;;;;;;;17.37;55.03;101310.34;5016672;28;20018;-75
2021/08/30 03:03:04;;;;;;;0.75;0.75;;;;;;;17.36;54.77;101303.16;5018793;28;20108;-76
2021/08/30 03:05:31;;;;;;;0.60;0.60;;;;;;;17.38;55.01;101309.25;4999890;28;20026;-75
2021/08/30 03:07:58;;;;;;;0.52;0.52;;;;;;;17.32;54.81;101302.94;4994941;28;20085;-75
2021/08/30 03:10:23;;;;;;;0.80;0.80;;;;;;;17.37;54.72;101310.34;5005493;28;20033;-75
2021/08/30 03:12:53;;;;;;;0.45;0.45;;;;;;;17.36;54.91;101316.97;4978416;28;20081;-76
2021/08/30 03:15:22;;;;;;;1.65;0.50;;;;;;;17.32;55.04;101308.47;4993609;28;20037;-75
2021/08/30 03:17:50;;;;;;;1.27;0.50;;;;;;;17.33;55.04;101309.28;5009828;28;20022;-73
2021/08/30 03:20:18;;;;;;;0.30;0.30;;;;;;;17.31;54.79;101305.97;4989705;28;20030;-73
2021/08/30 03:22:45;;;;;;;1.77;0.75;;;;;;;17.30;54.89;101305.13;4992132;28;20072;-73
2021/08/30 03:25:14;;;;;;;0.40;0.40;;;;;;;17.31;54.76;101308.75;5009712;28;20029;-75
2021/08/30 03:27:44;;;;;;;0.40;0.40;;;;;;;17.30;54.99;101293.25;5015967;28;20036;-76
2021/08/30 03:30:12;;;;;;;0.40;0.40;;;;;;;17.28;54.73;101301.84;4997957;28;20136;-76
2021/08/30 03:32:38;;;;;;;0.40;0.40;;;;;;;17.28;54.61;101302.66;4997133;28;20088;-75
2021/08/30 03:35:14;;;;;;;0.82;0.52;;;;;;;17.30;54.64;101305.13;5011071;28;20077;-76
2021/08/30 03:38:07;;;;;;;0.38;0.30;;;;;;;17.25;54.69;101297.72;4991815;28;20030;-75
2021/08/30 03:40:47;;;;;;;0.43;0.40;;;;;;;17.21;54.96;101298.59;4975349;28;20694;-74
2021/08/30 03:43:47;;;;;;;;;;;;;;;17.26;55.00;101299.38;4977035;28;20073;-76
2021/08/30 03:46:16;;;;;;;0.70;0.50;;;;;;;17.19;55.07;101289.78;4975721;28;19929;-76
2021/08/30 03:48:43;;;;;;;0.70;0.70;;;;;;;17.20;54.90;101295.03;4925278;29;20103;-75
2021/08/30 03:52:02;;;;;;;0.40;0.40;;;;;;;17.25;54.74;101296.91;4936518;29;20047;-77
2021/08/30 04:04:43;;;;;;;0.40;0.40;;;;;;;17.01;54.92;101258.97;4876378;29;20114;-75
2021/08/30 04:07:20;;;;;;;;;;;;;;;;;;;;;
2021/08/30 04:13:51;;;;;;;;;;;;;;;;;;;;;
2021/08/30 04:16:52;;;;;;;;;;;;;;;;;;;;;
2021/08/30 04:23:37;;;;;;;;;;;;;;;;;;;;;
2021/08/30 04:26:57;;;;;;;;;;;;;;;;;;;;;
2021/08/30 04:30:28;;;;;;;0.60;0.22;;;;;;;16.95;55.80;101286.94;4815854;29;20149;-76
2021/08/30 04:33:22;;;;;;;;;;;;;;;;;;;;;
2021/08/30 04:36:18;;;;;;;0.30;0.30;;;;;;;16.91;55.44;101287.50;4918376;29;20101;-75
2021/08/30 04:39:27;;;;;;;0.30;0.28;;;;;;;16.97;55.67;101284.69;4916871;29;20106;-75
2021/08/30 04:52:43;;;;;;;;;;;;;;;;;;;;;
2021/08/30 04:56:27;;;;;;;0.40;0.40;;;;;;;17.08;55.86;101311.13;4800494;29;20082;-76
2021/08/30 05:02:51;;;;;;;0.40;0.40;;;;;;;16.92;55.59;101288.31;4855976;29;20117;-75
2021/08/30 05:05:16;;;;;;;0.25;0.25;;;;;;;16.99;56.25;101315.63;4867982;29;20125;-76
2021/08/30 05:08:29;;;;;;;;;;;;;;;;;;;;;
2021/08/30 05:11:44;;;;;;;1.70;0.57;;;;;;;17.02;55.80;101326.09;4895178;29;20124;-76
2021/08/30 05:40:11;;;;;;;;;;;;;;;;;;;;;
2021/08/30 05:46:41;;;;;;;;;;;;;;;;;;;;;
2021/08/30 06:12:29;;;;;;;0.65;0.50;;;;;;;16.80;57.46;101335.59;4990916;28;20097;-75
2021/08/30 06:14:55;;;;;;;0.55;0.47;;;;;;;16.82;57.61;101340.84;4961118;28;20030;-77
2021/08/30 06:17:20;;;;;;;0.30;0.30;;;;;;;16.82;57.59;101335.31;4977920;28;20026;-76
2021/08/30 06:19:46;;;;;;;0.40;0.40;;;;;;;16.88;57.47;101343.34;4974680;28;20033;-78
2021/08/30 06:22:12;;;;;;;0.30;0.30;;;;;;;16.91;57.70;101347.47;4982811;28;20036;-76
2021/08/30 06:24:40;;;;;;;0.32;0.30;;;;;;;16.92;57.22;101357.38;4947548;28;20084;-77
2021/08/30 06:27:09;;;;;;;0.70;0.60;;;;;;;16.87;57.94;101341.66;4963158;28;20027;-75
2021/08/30 06:30:08;;;;;;;0.55;0.30;;;;;;;17.01;57.47;101360.38;4961756;28;20035;-76
2021/08/30 06:33:01;;;;;;;0.40;0.32;;;;;;;16.98;57.62;101352.66;4960352;28;20034;-75
2021/08/30 06:41:03;;;;;;;0.77;0.60;;;;;;;17.15;57.43;101358.59;4964472;28;20055;-75
2021/08/30 06:43:42;;;;;;;0.85;0.80;;;;;;;17.02;57.58;101334.41;4967746;28;20506;-73
2021/08/30 06:46:10;;;;;;;2.03;1.20;;;;;;;17.17;57.43;101361.94;4965985;28;20035;-74
2021/08/30 06:52:25;;;;;;;0.68;0.60;;;;;;;17.18;57.04;101374.59;4957366;28;20062;-74
2021/08/30 06:55:08;;;;;;;;;;;;;;;;;;;;;
2021/08/30 06:57:47;;;;;;;1.05;0.90;;;;;;;16.95;57.80;101356.81;4971080;28;20033;-74
2021/08/30 07:00:33;;;;;;;;;;;;;;;;;;;;;
2021/08/30 07:03:35;;;;;;;;;;;;;;;;;;;;;
2021/08/30 07:06:44;;;;;;;0.90;0.80;;;;;;;16.68;58.16;101338.72;4932737;29;20107;-75
2021/08/30 07:09:18;;;;;;;0.95;0.90;;;;;;;16.71;58.50;101348.38;4856381;29;20061;-76
2021/08/30 07:12:05;;;;;;;;;;;;;;;;;;;;;
2021/08/30 07:14:31;;;;;;;0.65;0.45;;;;;;;16.71;58.59;101348.38;4859134;29;20348;-74
2021/08/30 07:17:17;;;;;;;1.10;0.68;;;;;;;16.81;58.72;101355.78;4877158;29;20072;-73
2021/08/30 07:19:51;;;;;;;1.25;0.60;;;;;;;16.77;58.31;101351.94;4873767;29;20118;-72
2021/08/30 07:22:22;;;;;;;0.40;0.40;;;;;;;16.87;58.34;101357.41;4947789;28;20505;-73
2021/08/30 07:25:08;;;;;;;0.98;0.70;;;;;;;16.89;58.30;101360.72;4936163;29;20036;-73
2021/08/30 07:27:34;;;;;;;2.05;1.02;;;;;;;16.89;58.75;101364.34;4944244;28;20577;-73
2021/08/30 07:30:08;;;;;;;1.00;0.70;;;;;;;16.88;58.72;101364.59;4976272;28;20038;-72
2021/08/30 07:32:54;;;;;;;3.10;1.08;;;;;;;16.93;58.66;101362.63;4969079;28;20038;-74
2021/08/30 07:35:28;;;;;;;1.30;0.77;;;;;;;17.02;58.80;101371.13;4976355;28;20055;-73
2021/08/30 07:38:09;;;;;;;;;;;;;;;;;;;;;
2021/08/30 07:44:20;;;;;;;0.77;0.77;;;;;;;17.16;58.47;101387.09;4946910;28;20038;-73
2021/08/30 07:46:45;;;;;;;1.90;0.55;;;;;;;17.22;58.39;101375.69;4972293;28;20026;-73
2021/08/30 07:49:11;;;;;;;0.40;0.38;;;;;;;17.30;58.63;101378.97;4971137;28;20035;-74
2021/08/30 07:51:39;;;;;;;0.50;0.45;;;;;;;17.38;58.11;101384.69;4972760;28;20047;-72
2021/08/30 07:54:05;;;;;;;0.60;0.60;;;;;;;17.44;57.95;101379.94;4956498;28;20485;-73
2021/08/30 07:56:31;;;;;;;1.27;0.82;;;;;;;17.48;58.37;101378.25;4973175;28;20031;-72
2021/08/30 07:59:05;;;;;;;1.30;0.68;;;;;;;17.45;58.06;101379.66;4945936;28;20035;-74
2021/08/30 08:01:31;;;;;;;1.17;0.67;;;;;;;17.57;58.18;101392.28;4956105;28;20042;-74
2021/08/30 08:04:02;;;;;;;0.63;0.63;;;;;;;17.55;58.25;101381.53;4975775;28;20066;-74
2021/08/30 08:06:27;;;;;;;0.98;0.88;;;;;;;17.60;58.33;101387.00;4963359;28;20037;-73
2021/08/30 08:09:00;;;;;;;0.95;0.85;;;;;;;17.63;58.33;101391.94;4972686;28;21615;-73
2021/08/30 08:11:26;;;;;;;1.20;0.98;;;;;;;17.70;57.94;101385.28;4972723;28;20135;-72
2021/08/30 08:13:51;;;;;;;1.40;0.80;;;;;;;17.78;57.56;101384.63;4972024;28;20066;-72
2021/08/30 08:16:17;;;;;;;0.63;0.63;;;;;;;17.80;57.65;101385.16;4966925;28;20077;-73
2021/08/30 08:18:43;;;;;;;1.52;0.55;;;;;;;17.91;57.44;101397.78;4958977;28;20461;-72
2021/08/30 08:21:09;;;;;;;1.17;0.80;;;;;;;17.92;57.35;101393.91;4973615;28;20037;-73
2021/08/30 08:23:35;;;;;;;0.73;0.70;;;;;;;18.04;57.40;101401.81;4944525;28;20432;-72
2021/08/30 08:26:01;;;;;;;0.77;0.77;;;;;;;18.11;56.83;101407.03;4982109;28;20111;-74
2021/08/30 08:28:34;;;;;;;0.93;0.77;;;;;;;18.19;57.02;101403.59;4965523;28;20061;-74
2021/08/30 08:31:04;;;;;;;0.77;0.73;;;;;;;18.24;57.03;101414.63;4969740;28;20385;-75
2021/08/30 08:33:30;;;;;;;0.77;0.77;;;;;;;18.29;56.71;101414.56;4950053;28;20031;-76
2021/08/30 08:35:55;;;;;;;0.60;0.60;;;;;;;18.37;56.26;101420.56;4960936;28;20397;-77
2021/08/30 08:38:23;;;;;;;1.15;0.80;;;;;;;18.35;56.44;101409.78;4964525;28;20090;-76
2021/08/30 08:40:52;;;;;;;2.40;1.15;;;;;;;18.48;56.56;101416.56;4977914;28;20103;-74
2021/08/30 08:43:21;;;;;;;2.90;0.85;;;;;;;18.45;56.04;101412.44;4975195;28;20022;-74
2021/08/30 08:45:49;;;;;;;3.47;0.70;;;;;;;18.57;56.15;101425.84;4968466;28;20349;-76
2021/08/30 08:48:16;;;;;;;1.85;0.75;;;;;;;18.58;56.30;101413.66;4978384;28;20041;-74
2021/08/30 08:50:41;;;;;;;4.30;0.55;;;;;;;18.66;55.76;101418.56;4978202;28;20026;-75
2021/08/30 08:53:16;;;;;;;0.52;0.52;;;;;;;18.80;55.80;101426.13;4974658;28;20110;-76
2021/08/30 08:55:44;;;;;;;0.50;0.50;;;;;;;18.80;55.96;101423.38;4973387;28;20034;-77
2021/08/30 08:58:11;;;;;;;0.70;0.70;;;;;;;18.94;55.44;101424.31;4978333;28;20113;-77
2021/08/30 09:14:25;;;;;;;0.80;0.75;;;;;;;19.29;55.12;101419.38;4904554;29;20051;-75
2021/08/30 09:18:11;;;;;;;;;;;;;;;;;;;;;
2021/08/30 09:20:38;;;;;;;3.05;0.73;;;;;;;19.42;54.50;101436.34;4827802;29;20042;-73
2021/08/30 09:23:54;;;;;;;;;;;;;;;;;;;;;
2021/08/30 09:33:53;;;;;;;1.65;1.42;;;;;;;19.55;54.15;101432.81;4806931;29;19955;-76
2021/08/30 09:47:21;;;;;;;0.50;0.50;;;;;;;19.83;54.19;101435.72;4853029;29;20052;-74
2021/08/30 09:50:39;;;;;;;1.70;0.77;;;;;;;19.92;53.13;101420.03;4958965;28;20034;-73
2021/08/30 09:53:23;;;;;;;;;;;;;;;;;;;;;
2021/08/30 09:56:22;;;;;;;;;;;;;;;;;;;;;
2021/08/30 10:04:48;;;;;;;1.10;0.90;;;;;;;20.35;52.28;101421.72;4963646;28;20062;-73
2021/08/30 10:07:57;;;;;;;0.50;0.50;;;;;;;20.55;52.32;101437.16;4975351;28;20084;-74
2021/08/30 10:14:06;;;;;;;;;;;;;;;;;;;;;
2021/08/30 10:24:28;;;;;;;1.65;0.65;;;;;;;21.14;50.87;101442.03;4920874;29;20542;-73
2021/08/30 10:27:08;;;;;;;0.47;0.47;;;;;;;21.07;50.85;101432.16;4914783;29;20036;-72
2021/08/30 10:33:46;;;;;;;1.35;0.50;;;;;;;21.36;50.36;101447.63;4860390;29;20139;-73
2021/08/30 10:36:19;;;;;;;0.93;0.40;;;;;;;21.32;50.23;101432.72;4860102;29;20505;-73
2021/08/30 10:39:05;;;;;;;0.73;0.45;;;;;;;21.48;49.83;101440.66;4833143;29;20074;-73
2021/08/30 10:41:34;;;;;;;0.43;0.43;;;;;;;21.59;50.09;101436.53;4861605;29;20038;-71
2021/08/30 10:44:22;;;;;;;0.68;0.50;;;;;;;21.81;49.81;101426.53;4857308;29;20041;-75
2021/08/30 10:46:50;;;;;;;0.38;0.38;;;;;;;21.95;49.56;101430.06;4829421;29;20369;-72
2021/08/30 10:49:30;;;;;;;0.50;0.50;;;;;;;22.17;49.48;101433.94;4844833;29;20449;-72
2021/08/30 10:52:11;;;;;;;0.50;0.50;;;;;;;22.33;48.70;101431.56;4889104;29;20066;-71
2021/08/30 10:54:48;;;;;;;0.30;0.30;;;;;;;22.54;48.95;101434.59;4924612;29;22099;-72
2021/08/30 10:57:16;;;;;;;0.40;0.40;;;;;;;22.63;48.20;101435.44;4938113;29;20038;-71
2021/08/30 10:59:43;;;;;;;0.90;0.60;;;;;;;22.68;47.64;101432.50;4918908;29;20091;-71
2021/08/30 11:02:10;;;;;;;0.40;0.40;;;;;;;22.80;47.96;101446.63;4912466;29;20059;-71
2021/08/30 11:04:41;;;;;;;0.40;0.40;;;;;;;22.79;47.83;101439.44;4933778;29;20031;-73
2021/08/30 11:07:24;;;;;;;;;;;;;;;;;;;;;
2021/08/30 11:09:55;;;;;;;0.35;0.35;;;;;;;22.66;46.92;101440.38;4936279;29;20087;-74
2021/08/30 11:12:41;;;;;;;0.40;0.40;;;;;;;22.69;46.82;101439.72;4945370;29;20115;-74
2021/08/30 11:15:09;;;;;;;0.20;0.20;;;;;;;22.80;46.72;101446.63;4937760;29;21260;-74
2021/08/30 11:28:27;;;;;;;10.02;1.15;;;;;;;22.65;46.66;101447.09;4858110;29;20040;-73
2021/08/30 11:31:48;;;;;;;6.45;1.10;;;;;;;22.60;46.57;101438.88;4867437;29;20040;-74
2021/08/30 11:41:16;;;;;;;0.43;0.40;;;;;;;22.82;46.48;101444.34;4765613;29;20064;-73
2021/08/30 11:43:41;;;;;;;0.50;0.40;;;;;;;22.96;46.67;101435.03;4857230;29;20041;-72
2021/08/30 11:46:08;;;;;;;1.40;0.93;;;;;;;23.19;46.62;101435.75;4922154;29;20035;-73
2021/08/30 11:48:34;;;;;;;0.43;0.43;;;;;;;23.49;45.48;101439.50;4917275;29;20170;-74
2021/08/30 11:51:04;;;;;;;2.88;0.68;;;;;;;23.64;44.90;101434.56;4930186;29;20056;-71
2021/08/30 11:53:31;;;;;;;0.50;0.50;;;;;;;23.59;44.41;101426.38;4936786;28;20086;-73
2021/08/30 11:55:58;;;;;;;0.40;0.38;;;;;;;23.62;45.03;101425.69;4920107;29;20087;-73
2021/08/30 12:01:07;;;;;;;0.40;0.40;;;;;;;24.02;44.38;101433.84;4994248;28;20504;-73
2021/08/30 12:03:44;;;;;;;5.65;0.40;;;;;;;24.13;43.63;101437.91;4998232;28;20033;-75
2021/08/30 12:06:18;;;;;;;0.40;0.40;;;;;;;24.25;44.09;101442.00;4994800;28;20046;-76
2021/08/30 12:08:52;;;;;;;0.50;0.50;;;;;;;24.42;44.42;101441.91;4992873;28;20032;-76
2021/08/30 12:11:18;;;;;;;0.32;0.32;;;;;;;24.53;43.78;101437.59;5000073;28;20148;-76
2021/08/30 12:16:23;;;;;;;0.30;0.30;;;;;;;24.54;43.54;101433.63;4984990;28;20039;-77
2021/08/30 12:18:56;;;;;;;0.35;0.35;;;;;;;24.50;43.24;101437.44;5003717;28;20436;-77
2021/08/30 12:21:37;;;;;;;0.40;0.40;;;;;;;24.38;43.61;101438.16;5002818;28;20133;-77
2021/08/30 12:24:04;;;;;;;0.30;0.30;;;;;;;24.24;42.99;101441.19;5001916;28;20022;-75
2021/08/30 12:26:29;;;;;;;0.30;0.25;;;;;;;24.14;43.06;101420.00;4983128;28;20034;-75
2021/08/30 12:28:59;;;;;;;0.40;0.40;;;;;;;24.12;43.13;101433.47;4985909;28;20034;-75
2021/08/30 12:31:30;;;;;;;0.47;0.38;;;;;;;24.02;43.41;101433.84;4976674;28;20374;-75
2021/08/30 12:34:13;;;;;;;0.30;0.30;;;;;;;23.91;43.58;101433.38;4986287;28;20018;-74
2021/08/30 12:36:39;;;;;;;0.22;0.22;;;;;;;23.77;43.51;101427.97;4974238;28;20030;-74
2021/08/30 12:39:06;;;;;;;0.30;0.30;;;;;;;23.66;43.60;101426.69;4995044;28;20077;-74
2021/08/30 12:41:32;;;;;;;0.40;0.30;;;;;;;23.58;44.09;101424.72;4978229;28;20022;-75
2021/08/30 12:43:58;;;;;;;0.20;0.20;;;;;;;23.53;44.05;101429.31;5001616;28;20038;-75
2021/08/30 12:46:28;;;;;;;0.57;0.50;;;;;;;23.57;43.81;101429.50;5003710;28;20027;-77
2021/08/30 12:48:59;;;;;;;0.47;0.30;;;;;;;23.57;43.83;101417.47;4992071;28;20085;-77
2021/08/30 12:51:40;;;;;;;0.50;0.30;;;;;;;23.62;43.31;101414.53;4976699;28;20090;-77
2021/08/30 12:54:05;;;;;;;0.95;0.43;;;;;;;23.55;43.39;101437.34;4970270;28;20090;-76
2021/08/30 12:56:31;;;;;;;0.40;0.40;;;;;;;23.35;43.20;101433.28;4983369;28;20053;-77
2021/08/30 12:58:56;;;;;;;0.60;0.45;;;;;;;23.15;43.74;101435.56;4962332;28;20117;-75
2021/08/30 13:01:22;;;;;;;0.70;0.40;;;;;;;22.99;44.10;101439.94;4982296;28;20104;-77
2021/08/30 13:03:47;;;;;;;0.30;0.30;;;;;;;22.92;44.36;101439.59;4981744;28;20027;-75
2021/08/30 13:06:13;;;;;;;0.70;0.60;;;;;;;22.87;44.56;101442.53;4998016;28;20033;-76
2021/08/30 13:08:38;;;;;;;0.40;0.40;;;;;;;22.81;44.68;101431.56;4983921;28;20094;-76
2021/08/30 13:11:04;;;;;;;0.30;0.30;;;;;;;22.77;44.51;101429.75;4967036;28;20034;-77
2021/08/30 13:13:30;;;;;;;0.35;0.30;;;;;;;22.78;44.76;101436.94;4982124;28;20030;-77
2021/08/30 13:15:56;;;;;;;0.50;0.50;;;;;;;22.65;44.53;101430.38;5003502;28;20029;-74
2021/08/30 13:18:21;;;;;;;0.30;0.30;;;;;;;22.48;45.25;101429.16;4968546;28;20037;-75
2021/08/30 13:20:52;;;;;;;0.35;0.35;;;;;;;22.37;45.36;101438.13;4982520;28;20026;-76
2021/08/30 13:23:23;;;;;;;0.20;0.20;;;;;;;22.19;45.52;101426.06;4978156;28;20038;-75
2021/08/30 13:25:48;;;;;;;0.30;0.30;;;;;;;22.11;46.00;101436.03;4998435;28;20030;-75
2021/08/30 13:28:14;;;;;;;0.43;0.43;;;;;;;22.02;46.31;101432.38;4978432;28;20439;-75
2021/08/30 13:30:40;;;;;;;0.40;0.40;;;;;;;;;;4998005;28;20039;-75
2021/08/30 13:33:07;;;;;;;0.85;0.65;;;;;;;21.93;46.79;101435.94;4998225;28;20034;-75
2021/08/30 13:35:32;;;;;;;0.40;0.40;;;;;;;21.99;46.51;101433.84;4995540;28;20045;-74
2021/08/30 13:38:00;;;;;;;0.57;0.55;;;;;;;21.95;46.77;101438.41;4985597;28;20485;-76
2021/08/30 13:40:27;;;;;;;0.38;0.38;;;;;;;;;;4984680;28;20034;-75
2021/08/30 13:42:53;;;;;;;0.40;0.40;;;;;;;22.03;46.74;101436.81;5001302;28;20039;-76
2021/08/30 13:45:19;;;;;;;0.68;0.50;;;;;;;22.07;46.76;101440.59;4982373;28;20034;-76
2021/08/30 13:47:44;;;;;;;1.05;0.82;;;;;;;22.11;46.59;101436.03;4968597;28;20106;-76
2021/08/30 13:50:11;;;;;;;0.50;0.40;;;;;;;22.08;46.76;101443.06;4977767;28;20054;-74
2021/08/30 13:52:38;;;;;;;0.40;0.40;;;;;;;22.01;46.63;101442.69;4955870;28;20030;-76
2021/08/30 13:55:04;;;;;;;0.60;0.60;;;;;;;21.91;46.68;101448.53;4976006;28;20066;-76
2021/08/30 13:57:30;;;;;;;0.50;0.50;;;;;;;21.78;47.08;101451.06;4996914;28;20034;-76
2021/08/30 13:59:58;;;;;;;0.30;0.30;;;;;;;21.66;47.08;101444.47;4999144;28;20046;-75
2021/08/30 14:02:24;;;;;;;0.90;0.30;;;;;;;21.56;47.72;101443.56;4994460;28;20026;-76
2021/08/30 14:04:49;;;;;;;0.73;0.60;;;;;;;21.47;47.58;101441.84;4979841;28;20039;-75
2021/08/30 14:07:15;;;;;;;0.65;0.65;;;;;;;21.45;47.69;101442.16;4984568;28;20041;-76
2021/08/30 14:09:41;;;;;;;0.90;0.75;;;;;;;21.47;48.07;101423.16;4983601;28;20054;-75
2021/08/30 14:12:07;;;;;;;1.40;1.30;;;;;;;21.53;48.01;101437.81;4974617;28;20038;-77
2021/08/30 14:14:35;;;;;;;0.70;0.70;;;;;;;21.49;48.33;101431.19;4984507;28;20034;-76
2021/08/30 14:17:02;;;;;;;0.57;0.57;;;;;;;21.62;47.75;101435.91;4995437;28;20026;-77
2021/08/30 14:19:29;;;;;;;0.65;0.50;;;;;;;21.73;48.03;101444.84;4969549;28;20034;-76
2021/08/30 14:21:55;;;;;;;0.43;0.43;;;;;;;21.78;47.73;101441.91;5000039;28;20018;-76
2021/08/30 14:24:33;;;;;;;0.60;0.60;;;;;;;21.92;47.79;101444.63;4982937;28;20034;-76
2021/08/30 14:26:58;;;;;;;1.95;0.68;;;;;;;22.00;47.46;101441.06;4989107;28;20030;-77
2021/08/30 14:29:35;;;;;;;0.65;0.65;;;;;;;22.06;47.20;101442.56;4968690;28;20035;-77
2021/08/30 14:32:01;;;;;;;1.08;0.90;;;;;;;22.09;47.54;101441.94;4986146;28;20084;-77
2021/08/30 14:34:33;;;;;;;0.50;0.50;;;;;;;22.11;47.02;101442.44;4984557;28;20050;-76
2021/08/30 14:37:02;;;;;;;0.70;0.70;;;;;;;22.08;46.93;101445.84;4997900;28;20174;-79
2021/08/30 14:39:27;;;;;;;0.70;0.70;;;;;;;22.05;46.89;101440.94;4983859;28;20019;-77
2021/08/30 14:41:55;;;;;;;1.33;1.23;;;;;;;21.93;46.96;101443.47;4961071;28;20069;-76
2021/08/30 14:44:21;;;;;;;0.98;0.98;;;;;;;21.73;47.07;101442.88;4948313;28;20044;-76
2021/08/30 14:46:51;;;;;;;0.50;0.50;;;;;;;21.51;47.52;101437.28;4982251;28;20089;-77
2021/08/30 14:49:22;;;;;;;0.60;0.60;;;;;;;21.49;47.97;101437.56;4979737;28;20049;-76
2021/08/30 14:52:08;;;;;;;;;;;;;;;;;;;;;
2021/08/30 14:54:58;;;;;;;0.40;0.30;;;;;;;21.23;47.89;101417.88;4992386;28;20082;-76
2021/08/30 14:58:00;;;;;;;0.55;0.30;;;;;;;21.22;48.01;101422.63;4967198;28;20034;-77
2021/08/30 15:00:30;;;;;;;1.02;0.98;;;;;;;21.41;48.12;101450.28;4991671;28;20239;-78
2021/08/30 15:03:06;;;;;;;;;;;;;;;;;;;;;
2021/08/30 15:05:31;;;;;;;1.83;1.63;;;;;;;21.40;48.04;101431.94;4982010;28;20086;-76
2021/08/30 15:07:57;;;;;;;0.57;0.57;;;;;;;21.44;47.92;101441.31;4982632;28;20114;-76
2021/08/30 15:10:30;;;;;;;0.60;0.60;;;;;;;21.50;47.83;101438.41;4960580;28;20022;-75
2021/08/30 15:13:05;;;;;;;0.57;0.57;;;;;;;21.54;48.03;101442.25;4997949;28;20420;-78
2021/08/30 15:16:01;;;;;;;;;;;;;;;;;;;;;
2021/08/30 15:18:35;;;;;;;4.78;1.00;;;;;;;21.38;48.53;101453.69;4987906;28;20102;-77
2021/08/30 15:21:28;;;;;;;1.17;0.57;;;;;;;21.25;48.59;101433.13;4998593;28;20428;-78
2021/08/30 15:27:11;;;;;;;0.88;0.88;;;;;;;21.31;48.50;101430.25;4986340;28;20081;-77
2021/08/30 15:30:06;;;;;;;1.35;0.50;;;;;;;21.34;48.33;101430.44;4987273;28;20543;-78
2021/08/30 15:32:54;;;;;;;0.68;0.57;;;;;;;21.26;48.72;101428.38;4965978;28;20090;-79
2021/08/30 15:35:30;;;;;;;0.40;0.40;;;;;;;21.31;48.67;101433.84;4997066;28;20035;-81
2021/08/30 15:38:08;;;;;;;0.28;0.20;;;;;;;21.20;48.61;101435.22;4987459;28;20030;-84
2021/08/30 15:40:40;;;;;;;1.17;0.50;;;;;;;21.10;48.82;101420.41;4980417;28;20031;-80
2021/08/30 15:43:15;;;;;;;0.50;0.50;;;;;;;21.04;49.00;101421.69;4984207;28;20038;-79
2021/08/30 15:45:48;;;;;;;0.43;0.40;;;;;;;20.99;48.91;101421.78;4990285;28;20037;-80
2021/08/30 15:48:24;;;;;;;;;;;;;;;;;;;;;
2021/08/30 15:50:58;;;;;;;1.10;0.60;;;;;;;20.90;49.47;101443.13;4997421;28;20094;-77
2021/08/30 15:53:34;;;;;;;;;;;;;;;;;;;;;
2021/08/30 15:56:00;;;;;;;0.70;0.70;;;;;;;20.57;49.77;101426.53;4999014;28;20082;-76
2021/08/30 18:22:31;;;;;;;;;;;;;;;;;;;;;
2021/08/30 18:28:18;;;;;;;2.35;1.58;;;;;;;18.26;55.16;101453.91;4876774;29;20047;-69
2021/08/30 18:30:50;;;;;;;1.77;1.67;;;;;;;18.21;55.96;101461.44;4952299;28;20038;-71
2021/08/30 18:33:34;;;;;;;3.22;1.67;;;;;;;18.22;55.82;101472.22;4977480;28;20026;-73
2021/08/30 18:36:27;;;;;;;1.50;1.40;;;;;;;18.11;56.06;101457.66;4980934;28;20653;-73
2021/08/30 21:44:40;;;;;;;0.80;0.80;;;;;;;17.41;58.70;101527.06;4969420;28;20666;-72
2021/08/30 23:10:39;;;;;;;0.68;0.68;;;;;;;18.00;52.63;101569.56;6044347;23;20341;-75
2021/08/30 23:33:27;;;;;;;0.77;0.70;;;;;;;17.85;53.20;101576.00;4955138;28;20097;-76
2021/08/30 23:35:53;;;;;;;0.55;0.55;;;;;;;17.84;53.18;101577.13;4927933;29;20102;-74
2021/08/30 23:38:18;;;;;;;0.77;0.77;;;;;;;17.82;53.15;101587.66;4938508;28;20121;-76
2021/08/30 23:41:22;;;;;;;0.80;0.80;;;;;;;17.86;53.45;101582.34;4956404;28;20418;-77
2021/08/30 23:47:34;;;;;;;0.47;0.47;;;;;;;17.84;52.69;101579.88;4823978;29;20042;-76
2021/08/30 23:50:44;;;;;;;0.77;0.70;;;;;;;17.78;53.16;101564.44;4829072;29;20046;-77
2021/08/30 23:53:46;;;;;;;1.10;1.00;;;;;;;17.83;53.36;101578.25;4869131;29;20045;-75
